createdAt,value
2023-01-30T00:01:13.955Z,8.85
2023-01-30T00:03:43.347Z,8.02
2023-01-30T00:06:12.040Z,7.65
2023-01-30T00:08:42.462Z,8.38
2023-01-30T00:11:12.901Z,7.57
2023-01-30T00:13:42.009Z,7.55
2023-01-30T00:16:10.993Z,8.13
2023-01-30T00:18:39.625Z,7.78
2023-01-30T00:21:10.777Z,7.57
2023-01-30T00:23:39.492Z,7.93
2023-01-30T00:26:08.626Z,7.45
2023-01-30T00:28:36.800Z,7.65
2023-01-30T00:31:04.794Z,8.05
2023-01-30T00:33:32.789Z,7.55
2023-01-30T00:36:02.969Z,7.47
2023-01-30T00:38:32.412Z,7.45
2023-01-30T00:41:00.386Z,7.30
2023-01-30T00:43:45.734Z,6.65
2023-01-30T00:46:40.526Z,7.05
2023-01-30T00:49:08.444Z,7.40
2023-01-30T00:51:38.491Z,7.10
2023-01-30T00:54:07.864Z,7.25
2023-01-30T00:56:35.917Z,7.50
2023-01-30T00:59:04.157Z,7.40
2023-01-30T01:01:32.140Z,6.82
2023-01-30T01:04:00.177Z,6.53
2023-01-30T01:06:28.115Z,7.35
2023-01-30T01:08:56.153Z,6.82
2023-01-30T01:11:25.574Z,6.68
2023-01-30T01:13:55.098Z,6.55
2023-01-30T01:16:24.444Z,6.75
2023-01-30T01:18:52.791Z,6.50
2023-01-30T01:21:21.400Z,6.55
2023-01-30T01:23:51.090Z,6.68
2023-01-30T01:26:19.184Z,6.40
2023-01-30T01:28:48.518Z,6.40
2023-01-30T01:31:18.525Z,5.93
2023-01-30T01:33:46.639Z,6.80
2023-01-30T01:36:29.378Z,6.80
2023-01-30T01:39:03.510Z,6.78
2023-01-30T01:41:30.812Z,6.72
2023-01-30T01:44:04.501Z,6.20
2023-01-30T01:46:36.044Z,6.68
2023-01-30T01:49:09.154Z,7.47
2023-01-30T01:51:41.107Z,5.90
2023-01-30T01:54:13.083Z,6.75
2023-01-30T01:56:47.140Z,6.50
2023-01-30T01:59:21.624Z,5.95
2023-01-30T02:01:50.621Z,5.95
2023-01-30T02:04:39.895Z,6.00
2023-01-30T02:07:08.591Z,5.57
2023-01-30T02:09:36.797Z,6.13
2023-01-30T02:12:06.438Z,6.00
2023-01-30T02:14:37.234Z,5.93
2023-01-30T02:17:07.424Z,6.30
2023-01-30T02:19:43.633Z,6.65
2023-01-30T02:22:37.838Z,6.25
2023-01-30T02:25:59.115Z,5.45
2023-01-30T02:28:56.929Z,5.75
2023-01-30T02:31:38.953Z,5.47
2023-01-30T02:34:19.667Z,5.63
2023-01-30T02:36:55.635Z,5.40
2023-01-30T02:39:34.496Z,5.53
2023-01-30T02:42:09.837Z,5.38
2023-01-30T02:44:48.331Z,5.40
2023-01-30T02:47:25.435Z,5.30
2023-01-30T02:50:00.726Z,5.35
2023-01-30T02:52:29.979Z,5.32
2023-01-30T02:54:57.964Z,5.45
2023-01-30T02:57:27.254Z,5.03
2023-01-30T02:59:59.059Z,4.63
2023-01-30T03:03:10.695Z,5.22
2023-01-30T03:06:10.275Z,5.43
2023-01-30T03:08:47.754Z,5.18
2023-01-30T03:11:16.230Z,4.70
2023-01-30T03:13:53.951Z,5.03
2023-01-30T03:16:26.817Z,4.78
2023-01-30T03:18:56.198Z,4.53
2023-01-30T03:21:24.190Z,4.90
2023-01-30T03:23:53.414Z,4.65
2023-01-30T03:26:26.058Z,4.65
2023-01-30T03:28:54.796Z,4.68
2023-01-30T03:31:23.956Z,3.90
2023-01-30T03:33:52.028Z,4.93
2023-01-30T03:36:21.329Z,4.32
2023-01-30T03:38:49.374Z,4.35
2023-01-30T03:41:17.319Z,4.53
2023-01-30T03:43:45.481Z,3.97
2023-01-30T03:46:13.409Z,4.45
2023-01-30T03:48:41.502Z,4.05
2023-01-30T03:51:09.475Z,4.35
2023-01-30T03:53:38.847Z,4.25
2023-01-30T03:56:07.163Z,3.70
2023-01-30T03:58:35.201Z,4.03
2023-01-30T04:01:03.221Z,4.32
2023-01-30T04:03:31.306Z,3.92
2023-01-30T04:05:59.274Z,4.15
2023-01-30T04:08:27.394Z,3.60
2023-01-30T04:10:56.742Z,4.53
2023-01-30T04:13:24.771Z,3.97
2023-01-30T04:15:54.727Z,3.97
2023-01-30T04:18:22.724Z,3.67
2023-01-30T04:20:50.715Z,3.58
2023-01-30T04:23:18.768Z,4.00
2023-01-30T04:25:48.490Z,3.40
2023-01-30T04:28:17.806Z,3.58
2023-01-30T04:30:45.828Z,3.72
2023-01-30T04:33:13.828Z,3.30
2023-01-30T04:35:41.853Z,3.50
2023-01-30T04:38:09.819Z,3.50
2023-01-30T04:40:37.756Z,3.58
2023-01-30T04:43:05.785Z,3.13
2023-01-30T04:45:35.067Z,3.50
2023-01-30T04:48:03.331Z,3.10
2023-01-30T04:50:31.241Z,3.65
2023-01-30T04:52:59.249Z,3.45
2023-01-30T04:55:27.251Z,3.15
2023-01-30T04:57:55.313Z,3.30
2023-01-30T05:00:23.658Z,3.20
2023-01-30T05:02:53.002Z,3.38
2023-01-30T05:05:21.117Z,2.70
2023-01-30T05:07:49.240Z,3.10
2023-01-30T05:10:17.977Z,2.90
2023-01-30T05:12:46.213Z,3.28
2023-01-30T05:15:15.460Z,2.90
2023-01-30T05:17:44.694Z,3.00
2023-01-30T05:20:15.176Z,2.70
2023-01-30T05:22:43.146Z,3.03
2023-01-30T05:25:11.433Z,3.03
2023-01-30T05:27:41.742Z,2.90
2023-01-30T05:30:11.028Z,2.75
2023-01-30T05:32:39.082Z,2.80
2023-01-30T05:35:08.487Z,2.97
2023-01-30T05:37:38.782Z,2.60
2023-01-30T05:40:08.152Z,3.05
2023-01-30T05:42:36.106Z,3.20
2023-01-30T05:45:04.205Z,2.55
2023-01-30T05:47:32.159Z,3.00
2023-01-30T05:50:00.189Z,2.55
2023-01-30T05:52:28.199Z,2.63
2023-01-30T05:54:57.746Z,3.15
2023-01-30T05:57:25.771Z,2.75
2023-01-30T05:59:53.966Z,2.60
2023-01-30T06:02:22.022Z,2.45
2023-01-30T06:04:50.011Z,2.35
2023-01-30T06:07:18.116Z,2.55
2023-01-30T06:09:46.072Z,2.70
2023-01-30T06:12:15.481Z,2.75
2023-01-30T06:14:43.418Z,2.20
2023-01-30T06:17:11.524Z,2.63
2023-01-30T06:19:42.481Z,2.30
2023-01-30T06:22:10.524Z,3.05
2023-01-30T06:24:38.448Z,2.28
2023-01-30T06:27:06.751Z,2.65
2023-01-30T06:29:36.167Z,2.55
2023-01-30T06:32:04.337Z,2.58
2023-01-30T06:34:32.351Z,2.55
2023-01-30T06:37:02.839Z,2.50
2023-01-30T06:39:30.842Z,2.58
2023-01-30T06:41:58.734Z,2.20
2023-01-30T06:44:26.793Z,2.22
2023-01-30T06:46:56.162Z,2.42
2023-01-30T06:49:24.258Z,2.50
2023-01-30T06:51:52.283Z,2.50
2023-01-30T06:54:20.458Z,2.22
2023-01-30T06:56:48.519Z,2.45
2023-01-30T06:59:18.874Z,3.00
2023-01-30T07:01:46.849Z,2.33
2023-01-30T07:04:16.272Z,2.60
2023-01-30T07:06:46.897Z,2.30
2023-01-30T07:09:14.901Z,2.70
2023-01-30T07:11:42.887Z,2.35
2023-01-30T07:14:11.101Z,2.47
2023-01-30T07:16:39.146Z,2.53
2023-01-30T07:19:09.763Z,2.25
2023-01-30T07:21:39.130Z,2.22
2023-01-30T07:24:07.784Z,2.47
2023-01-30T07:26:36.450Z,2.33
2023-01-30T07:29:07.515Z,2.38
2023-01-30T07:31:35.610Z,2.42
2023-01-30T07:34:03.819Z,2.20
2023-01-30T07:36:33.621Z,2.75
2023-01-30T07:39:02.976Z,2.55
2023-01-30T07:41:31.061Z,2.38
2023-01-30T07:43:59.000Z,2.30
2023-01-30T07:46:27.218Z,2.80
2023-01-30T07:48:55.279Z,2.40
2023-01-30T07:51:25.829Z,2.00
2023-01-30T07:53:53.900Z,2.75
2023-01-30T07:56:23.472Z,2.08
2023-01-30T07:58:52.157Z,2.25
2023-01-30T08:01:20.138Z,2.33
2023-01-30T08:03:49.331Z,2.38
2023-01-30T08:06:17.621Z,2.00
2023-01-30T08:08:46.311Z,2.35
2023-01-30T08:11:14.283Z,3.15
2023-01-30T08:13:43.663Z,3.88
2023-01-30T08:16:11.701Z,4.82
2023-01-30T08:18:40.067Z,4.50
2023-01-30T08:21:08.571Z,3.85
2023-01-30T08:23:36.548Z,4.20
2023-01-30T08:26:06.271Z,4.68
2023-01-30T08:28:34.647Z,4.07
2023-01-30T08:31:04.532Z,4.18
2023-01-30T08:33:32.597Z,4.20
2023-01-30T08:36:00.709Z,3.97
2023-01-30T08:38:29.037Z,4.07
2023-01-30T08:40:58.082Z,3.97
2023-01-30T08:43:26.293Z,3.95
2023-01-30T08:45:55.365Z,4.30
2023-01-30T08:48:24.886Z,4.00
2023-01-30T08:50:54.038Z,3.50
2023-01-30T08:53:22.842Z,2.80
2023-01-30T08:55:52.008Z,3.33
2023-01-30T08:58:20.173Z,4.20
2023-01-30T09:00:49.553Z,3.38
2023-01-30T09:03:18.828Z,4.00
2023-01-30T09:05:48.394Z,4.50
2023-01-30T09:08:16.401Z,4.20
2023-01-30T09:10:46.643Z,4.45
2023-01-30T09:13:14.696Z,3.75
2023-01-30T09:15:43.362Z,3.63
2023-01-30T09:18:11.410Z,3.50
2023-01-30T09:20:39.911Z,3.42
2023-01-30T09:23:09.429Z,3.78
2023-01-30T09:25:37.696Z,3.65
2023-01-30T09:28:05.973Z,3.65
2023-01-30T09:30:33.947Z,4.13
2023-01-30T09:33:03.743Z,3.47
2023-01-30T09:35:32.113Z,3.58
2023-01-30T09:38:01.513Z,3.17
2023-01-30T09:40:33.794Z,3.55
2023-01-30T09:45:56.210Z,3.40
2023-01-30T09:48:30.657Z,3.53
2023-01-30T09:51:24.062Z,3.15
2023-01-30T09:54:02.568Z,3.55
2023-01-30T09:56:32.533Z,3.40
2023-01-30T09:59:02.621Z,3.50
2023-01-30T10:01:39.888Z,3.80
2023-01-30T10:04:16.219Z,3.08
2023-01-30T10:06:55.923Z,3.47
2023-01-30T10:09:33.213Z,3.22
2023-01-30T10:12:23.189Z,3.47
2023-01-30T10:15:23.913Z,3.50
2023-01-30T10:18:08.019Z,5.03
2023-01-30T10:20:44.976Z,4.75
2023-01-30T10:23:35.490Z,4.85
2023-01-30T10:26:10.751Z,5.32
2023-01-30T10:28:49.794Z,4.30
2023-01-30T10:31:23.370Z,4.30
2023-01-30T10:33:59.293Z,4.90
2023-01-30T10:36:34.111Z,3.80
2023-01-30T10:39:06.028Z,4.10
2023-01-30T10:41:43.588Z,5.07
2023-01-30T10:44:14.895Z,4.70
2023-01-30T10:47:00.095Z,4.53
2023-01-30T10:49:37.804Z,3.42
2023-01-30T10:52:20.099Z,4.50
2023-01-30T10:54:57.819Z,3.85
2023-01-30T10:57:36.541Z,3.60
2023-01-30T11:00:13.813Z,4.15
2023-01-30T11:02:52.240Z,3.85
2023-01-30T11:05:25.396Z,4.03
2023-01-30T11:07:53.442Z,4.00
2023-01-30T11:10:24.463Z,3.95
2023-01-30T11:12:55.237Z,3.40
2023-01-30T11:15:25.551Z,3.92
2023-01-30T11:18:34.150Z,3.47
2023-01-30T11:21:05.383Z,4.40
2023-01-30T11:23:35.660Z,4.05
2023-01-30T11:26:11.204Z,3.03
2023-01-30T11:28:43.099Z,3.03
2023-01-30T11:31:31.476Z,3.60
2023-01-30T11:34:06.278Z,3.78
2023-01-30T11:36:35.859Z,3.17
2023-01-30T11:39:05.969Z,3.30
2023-01-30T11:41:34.072Z,3.25
2023-01-30T11:44:04.934Z,3.30
2023-01-30T11:46:37.722Z,3.50
2023-01-30T11:49:55.889Z,3.58
2023-01-30T11:52:06.586Z,3.25
2023-01-30T11:54:38.264Z,3.70
2023-01-30T11:57:11.670Z,3.28
2023-01-30T11:59:44.921Z,3.33
2023-01-30T12:02:21.149Z,3.50
2023-01-30T12:04:55.744Z,3.20
2023-01-30T12:07:26.397Z,2.92
2023-01-30T12:09:55.499Z,3.33
2023-01-30T12:12:32.877Z,2.92
2023-01-30T12:15:21.276Z,2.97
2023-01-30T12:17:57.420Z,2.67
2023-01-30T12:20:33.974Z,3.28
2023-01-30T12:23:10.534Z,3.30
2023-01-30T12:25:44.356Z,2.90
2023-01-30T12:28:20.745Z,2.80
2023-01-30T12:30:55.079Z,3.33
2023-01-30T12:33:29.917Z,2.80
2023-01-30T12:36:07.437Z,3.20
2023-01-30T12:39:03.163Z,3.45
2023-01-30T12:41:49.443Z,2.80
2023-01-30T12:44:40.393Z,2.70
2023-01-30T12:47:31.778Z,3.20
2023-01-30T12:50:15.384Z,2.92
2023-01-30T12:52:57.554Z,2.88
2023-01-30T12:55:37.775Z,2.83
2023-01-30T12:58:15.882Z,2.78
2023-01-30T13:00:56.447Z,2.55
2023-01-30T13:03:31.687Z,3.15
2023-01-30T13:06:11.868Z,2.80
2023-01-30T13:08:56.421Z,3.30
2023-01-30T13:11:56.044Z,2.58
2023-01-30T13:14:32.790Z,2.80
2023-01-30T13:17:15.517Z,2.97
2023-01-30T13:19:49.841Z,2.83
2023-01-30T13:22:25.397Z,2.65
2023-01-30T13:25:03.642Z,2.85
2023-01-30T13:27:36.637Z,2.83
2023-01-30T13:30:10.500Z,3.00
2023-01-30T13:32:42.608Z,2.80
2023-01-30T13:35:18.196Z,3.20
2023-01-30T13:37:50.091Z,2.88
2023-01-30T13:40:21.062Z,2.33
2023-01-30T13:42:53.381Z,2.65
2023-01-30T13:48:08.727Z,2.40
2023-01-30T13:50:51.676Z,2.30
2023-01-30T13:53:29.061Z,2.38
2023-01-30T13:55:59.715Z,2.72
2023-01-30T13:58:44.121Z,2.60
2023-01-30T14:01:13.370Z,2.97
2023-01-30T14:03:41.807Z,2.83
2023-01-30T14:06:33.530Z,2.45
2023-01-30T14:09:17.007Z,2.53
2023-01-30T14:11:50.226Z,2.30
2023-01-30T14:14:29.094Z,2.30
2023-01-30T14:16:59.422Z,2.10
2023-01-30T14:19:37.534Z,2.30
2023-01-30T14:22:22.362Z,2.80
2023-01-30T14:25:35.325Z,2.20
2023-01-30T14:30:52.195Z,2.45
2023-01-30T14:33:36.195Z,2.08
2023-01-30T14:36:37.432Z,2.65
2023-01-30T14:39:39.937Z,2.47
2023-01-30T14:42:31.485Z,2.58
2023-01-30T14:45:02.450Z,2.30
2023-01-30T14:47:36.748Z,2.13
2023-01-30T14:50:21.104Z,2.63
2023-01-30T14:52:50.369Z,2.40
2023-01-30T14:55:22.297Z,2.55
2023-01-30T14:57:56.749Z,2.50
2023-01-30T15:00:29.383Z,2.25
2023-01-30T15:03:01.557Z,2.67
2023-01-30T15:08:07.501Z,2.10
2023-01-30T15:10:50.694Z,2.15
2023-01-30T15:13:49.760Z,2.65
2023-01-30T15:16:35.110Z,2.17
2023-01-30T15:19:19.579Z,2.28
2023-01-30T15:22:00.058Z,2.22
2023-01-30T15:24:49.201Z,2.60
2023-01-30T15:27:24.090Z,1.95
2023-01-30T15:30:18.650Z,2.80
2023-01-30T15:32:47.147Z,2.22
2023-01-30T15:35:24.711Z,2.00
2023-01-30T15:37:54.296Z,2.63
2023-01-30T15:40:25.709Z,1.95
2023-01-30T15:43:03.755Z,2.88
2023-01-30T15:45:42.290Z,1.77
2023-01-30T15:48:37.218Z,1.95
2023-01-30T15:51:06.089Z,1.95
2023-01-30T15:53:37.127Z,2.40
2023-01-30T15:56:10.809Z,2.08
2023-01-30T15:58:42.372Z,2.25
2023-01-30T16:01:15.886Z,2.28
2023-01-30T16:03:44.547Z,2.22
2023-01-30T16:06:24.572Z,2.50
2023-01-30T16:09:01.632Z,2.33
2023-01-30T16:11:38.359Z,2.17
2023-01-30T16:14:07.515Z,2.15
2023-01-30T16:16:37.627Z,2.58
2023-01-30T16:19:09.060Z,2.33
2023-01-30T16:21:40.177Z,2.57
2023-01-30T16:24:15.137Z,2.30
2023-01-30T16:26:47.267Z,2.38
2023-01-30T16:29:18.061Z,2.30
2023-01-30T16:31:49.532Z,1.85
2023-01-30T16:34:30.194Z,1.67
2023-01-30T16:37:03.423Z,2.95
2023-01-30T16:39:33.542Z,1.85
2023-01-30T16:42:03.415Z,1.40
2023-01-30T16:44:33.014Z,2.25
2023-01-30T16:47:04.982Z,3.63
2023-01-30T16:49:45.486Z,9.18
2023-01-30T16:52:19.691Z,11.65
2023-01-30T16:54:50.541Z,13.13
2023-01-30T16:57:36.134Z,12.02
2023-01-30T17:00:10.056Z,11.60
2023-01-30T17:02:43.111Z,10.23
2023-01-30T17:05:21.598Z,10.38
2023-01-30T17:07:50.727Z,10.10
2023-01-30T17:10:59.771Z,9.30
2023-01-30T17:13:33.147Z,8.77
2023-01-30T17:16:27.557Z,8.82
2023-01-30T17:18:58.291Z,9.20
2023-01-30T17:21:31.850Z,8.02
2023-01-30T17:24:02.754Z,8.23
2023-01-30T17:26:31.604Z,8.02
2023-01-30T17:28:59.931Z,8.02
2023-01-30T17:31:28.223Z,7.60
2023-01-30T17:33:57.900Z,7.70
2023-01-30T17:36:28.373Z,7.35
2023-01-30T17:38:57.144Z,6.50
2023-01-30T17:41:28.532Z,6.43
2023-01-30T17:43:56.650Z,5.80
2023-01-30T17:46:32.199Z,6.10
2023-01-30T17:49:01.590Z,5.95
2023-01-30T17:51:29.644Z,5.95
2023-01-30T17:53:57.633Z,5.30
2023-01-30T17:56:30.460Z,5.18
2023-01-30T17:58:58.515Z,5.38
2023-01-30T18:01:26.450Z,4.85
2023-01-30T18:03:54.524Z,5.32
2023-01-30T18:06:27.258Z,4.30
2023-01-30T18:08:55.241Z,4.82
2023-01-30T18:11:23.559Z,4.88
2023-01-30T18:13:51.550Z,5.18
2023-01-30T18:16:23.784Z,4.55
2023-01-30T18:18:52.371Z,4.60
2023-01-30T18:21:22.084Z,4.35
2023-01-30T18:23:51.617Z,4.43
2023-01-30T18:26:20.341Z,4.15
2023-01-30T18:28:49.117Z,4.18
2023-01-30T18:31:17.783Z,4.30
2023-01-30T18:33:46.024Z,4.00
2023-01-30T18:36:16.268Z,3.85
2023-01-30T18:38:44.562Z,3.78
2023-01-30T18:41:16.036Z,3.72
2023-01-30T18:43:45.573Z,3.72
2023-01-30T18:46:16.204Z,3.30
2023-01-30T18:48:45.339Z,3.65
2023-01-30T18:51:15.294Z,3.63
2023-01-30T18:56:17.546Z,3.10
2023-01-30T18:58:45.814Z,3.03
2023-01-30T19:01:15.876Z,2.67
2023-01-30T19:03:44.594Z,3.20
2023-01-30T19:06:15.264Z,3.33
2023-01-30T19:08:43.427Z,3.42
2023-01-30T19:11:30.734Z,3.22
2023-01-30T19:14:00.432Z,2.88
2023-01-30T19:16:30.729Z,3.60
2023-01-30T19:18:59.323Z,2.90
2023-01-30T19:21:28.265Z,3.35
2023-01-30T19:23:56.631Z,3.17
2023-01-30T19:26:26.064Z,3.17
2023-01-30T19:28:54.283Z,3.17
2023-01-30T19:31:24.068Z,3.25
2023-01-30T19:33:55.927Z,2.95
2023-01-30T19:36:25.888Z,2.97
2023-01-30T19:38:54.026Z,3.00
2023-01-30T19:41:26.000Z,3.10
2023-01-30T19:43:55.612Z,2.90
2023-01-30T19:46:25.681Z,2.90
2023-01-30T19:48:53.707Z,2.83
2023-01-30T19:51:23.996Z,2.88
2023-01-30T19:53:53.723Z,2.95
2023-01-30T19:56:24.939Z,3.15
2023-01-30T19:58:54.936Z,2.97
2023-01-30T20:01:27.812Z,3.47
2023-01-30T20:03:56.101Z,3.40
2023-01-30T20:06:26.169Z,2.97
2023-01-30T20:08:58.333Z,3.53
2023-01-30T20:11:26.928Z,3.08
2023-01-30T20:13:55.730Z,2.50
2023-01-30T20:16:27.739Z,3.28
2023-01-30T20:18:57.745Z,3.60
2023-01-30T20:21:26.620Z,2.65
2023-01-30T20:23:54.924Z,2.55
2023-01-30T20:26:24.884Z,3.28
2023-01-30T20:28:54.767Z,2.92
2023-01-30T20:31:26.257Z,3.13
2023-01-30T20:33:55.849Z,2.85
2023-01-30T20:36:24.941Z,3.50
2023-01-30T20:38:53.527Z,2.67
2023-01-30T20:41:23.444Z,2.70
2023-01-30T20:43:52.919Z,2.83
2023-01-30T20:46:22.662Z,2.90
2023-01-30T20:48:54.664Z,2.90
2023-01-30T20:53:53.391Z,2.95
2023-01-30T20:56:22.434Z,2.70
2023-01-30T20:58:52.710Z,2.50
2023-01-30T21:01:22.583Z,3.28
2023-01-30T21:03:53.688Z,3.00
2023-01-30T21:06:41.753Z,2.83
2023-01-30T21:09:13.130Z,2.78
2023-01-30T21:11:41.382Z,2.75
2023-01-30T21:14:09.327Z,2.70
2023-01-30T21:16:38.393Z,2.67
2023-01-30T21:19:09.472Z,2.83
2023-01-30T21:21:41.878Z,2.50
2023-01-30T21:24:14.176Z,2.58
2023-01-30T21:26:46.113Z,2.90
2023-01-30T21:29:16.306Z,2.97
2023-01-30T21:31:45.376Z,2.92
2023-01-30T21:34:16.339Z,2.70
2023-01-30T21:37:05.522Z,2.90
2023-01-30T21:39:53.432Z,2.88
2023-01-30T21:42:39.114Z,3.10
2023-01-30T21:45:08.455Z,2.35
2023-01-30T21:47:37.007Z,2.53
2023-01-30T21:50:07.414Z,2.70
2023-01-30T21:52:36.524Z,2.72
2023-01-30T21:55:07.430Z,2.80
2023-01-30T21:57:36.134Z,2.90
2023-01-30T22:00:04.900Z,3.35
2023-01-30T22:02:32.952Z,2.42
2023-01-30T22:05:00.918Z,2.63
2023-01-30T22:07:31.413Z,1.98
2023-01-30T22:10:01.496Z,2.30
2023-01-30T22:12:31.661Z,2.60
2023-01-30T22:14:59.785Z,2.67
2023-01-30T22:17:27.741Z,2.67
2023-01-30T22:19:55.742Z,2.80
2023-01-30T22:22:25.779Z,2.38
2023-01-30T22:24:55.201Z,2.38
2023-01-30T22:27:23.222Z,2.85
2023-01-30T22:29:51.642Z,2.47
2023-01-30T22:32:19.723Z,2.50
2023-01-30T22:34:47.788Z,3.22
2023-01-30T22:37:16.862Z,2.45
2023-01-30T22:39:44.862Z,2.60
2023-01-30T22:42:14.289Z,2.95
2023-01-30T22:44:42.492Z,2.53
2023-01-30T22:47:10.699Z,2.90
2023-01-30T22:49:38.727Z,2.83
2023-01-30T22:52:09.779Z,2.55
2023-01-30T22:54:38.211Z,2.70
2023-01-30T22:57:06.226Z,2.53
2023-01-30T22:59:36.933Z,2.35
2023-01-30T23:02:10.288Z,2.40
2023-01-30T23:04:38.317Z,2.70
2023-01-30T23:07:06.511Z,2.42
2023-01-30T23:09:34.637Z,2.55
2023-01-30T23:12:19.783Z,2.75
2023-01-30T23:14:49.168Z,2.40
2023-01-30T23:17:34.271Z,2.80
2023-01-30T23:20:02.384Z,2.22
2023-01-30T23:22:30.324Z,2.17
2023-01-30T23:24:58.279Z,2.42
2023-01-30T23:27:26.271Z,2.60
2023-01-30T23:29:55.703Z,2.10
2023-01-30T23:32:25.867Z,2.67
2023-01-30T23:34:53.839Z,2.72
2023-01-30T23:37:42.847Z,2.33
2023-01-30T23:40:12.168Z,2.08
2023-01-30T23:42:42.779Z,2.15
2023-01-30T23:45:12.622Z,2.47
2023-01-30T23:47:40.929Z,2.10
2023-01-30T23:50:09.632Z,2.30
2023-01-30T23:52:37.653Z,2.42
2023-01-30T23:55:06.750Z,2.30
2023-01-30T23:57:35.126Z,2.60
